sensor_id;sensor_type;location;lat;lon;timestamp;temperature;humidity
21092;DHT22;10704;42.678;23.288;2024-02-16T00:00:02;2.30;99.90
21092;DHT22;10704;42.678;23.288;2024-02-16T00:02:38;2.40;99.90
21092;DHT22;10704;42.678;23.288;2024-02-16T00:05:06;2.40;99.90
21092;DHT22;10704;42.678;23.288;2024-02-16T00:07:33;2.30;99.90
21092;DHT22;10704;42.678;23.288;2024-02-16T00:10:00;2.40;99.90
21092;DHT22;10704;42.678;23.288;2024-02-16T00:12:26;2.40;99.90
21092;DHT22;10704;42.678;23.288;2024-02-16T00:14:51;2.50;99.90
21092;DHT22;10704;42.678;23.288;2024-02-16T00:17:17;2.40;99.90
21092;DHT22;10704;42.678;23.288;2024-02-16T00:19:43;2.40;99.90
21092;DHT22;10704;42.678;23.288;2024-02-16T00:22:09;2.50;99.90
21092;DHT22;10704;42.678;23.288;2024-02-16T00:24:35;2.60;99.90
21092;DHT22;10704;42.678;23.288;2024-02-16T00:27:02;2.70;99.90
21092;DHT22;10704;42.678;23.288;2024-02-16T00:29:32;2.70;99.90
21092;DHT22;10704;42.678;23.288;2024-02-16T00:31:58;2.40;99.90
21092;DHT22;10704;42.678;23.288;2024-02-16T00:34:25;2.40;99.90
21092;DHT22;10704;42.678;23.288;2024-02-16T00:36:51;2.30;99.90
21092;DHT22;10704;42.678;23.288;2024-02-16T00:39:20;2.30;99.90
21092;DHT22;10704;42.678;23.288;2024-02-16T00:41:48;2.30;99.90
21092;DHT22;10704;42.678;23.288;2024-02-16T00:44:13;2.30;99.90
21092;DHT22;10704;42.678;23.288;2024-02-16T00:46:39;2.30;99.90
21092;DHT22;10704;42.678;23.288;2024-02-16T00:49:06;2.30;99.90
21092;DHT22;10704;42.678;23.288;2024-02-16T00:51:32;2.30;99.90
21092;DHT22;10704;42.678;23.288;2024-02-16T00:53:58;2.20;99.90
21092;DHT22;10704;42.678;23.288;2024-02-16T00:56:27;2.20;99.90
21092;DHT22;10704;42.678;23.288;2024-02-16T00:58:53;2.40;99.90
21092;DHT22;10704;42.678;23.288;2024-02-16T01:01:22;2.50;99.90
21092;DHT22;10704;42.678;23.288;2024-02-16T01:03:50;2.60;99.90
21092;DHT22;10704;42.678;23.288;2024-02-16T01:06:17;2.80;99.90
21092;DHT22;10704;42.678;23.288;2024-02-16T01:08:43;2.80;99.90
21092;DHT22;10704;42.678;23.288;2024-02-16T01:11:09;2.70;99.90
21092;DHT22;10704;42.678;23.288;2024-02-16T01:13:35;2.70;99.90
21092;DHT22;10704;42.678;23.288;2024-02-16T01:16:02;2.50;99.90
21092;DHT22;10704;42.678;23.288;2024-02-16T01:18:29;2.50;99.90
21092;DHT22;10704;42.678;23.288;2024-02-16T01:20:56;2.60;99.90
21092;DHT22;10704;42.678;23.288;2024-02-16T01:23:22;2.70;99.90
21092;DHT22;10704;42.678;23.288;2024-02-16T01:25:48;2.60;99.90
21092;DHT22;10704;42.678;23.288;2024-02-16T01:28:14;2.60;99.90
21092;DHT22;10704;42.678;23.288;2024-02-16T01:30:40;2.40;99.90
21092;DHT22;10704;42.678;23.288;2024-02-16T01:33:06;2.30;99.90
21092;DHT22;10704;42.678;23.288;2024-02-16T01:35:35;2.20;99.90
21092;DHT22;10704;42.678;23.288;2024-02-16T01:38:02;2.30;99.90
21092;DHT22;10704;42.678;23.288;2024-02-16T01:40:28;2.20;99.90
21092;DHT22;10704;42.678;23.288;2024-02-16T01:42:54;2.20;99.90
21092;DHT22;10704;42.678;23.288;2024-02-16T01:45:20;2.20;99.90
21092;DHT22;10704;42.678;23.288;2024-02-16T01:47:51;2.30;99.90
21092;DHT22;10704;42.678;23.288;2024-02-16T01:50:18;2.30;99.90
21092;DHT22;10704;42.678;23.288;2024-02-16T01:52:45;2.20;99.90
21092;DHT22;10704;42.678;23.288;2024-02-16T01:55:12;2.40;99.90
21092;DHT22;10704;42.678;23.288;2024-02-16T01:57:44;2.40;99.90
21092;DHT22;10704;42.678;23.288;2024-02-16T02:00:10;2.30;99.90
21092;DHT22;10704;42.678;23.288;2024-02-16T02:02:37;2.10;99.90
21092;DHT22;10704;42.678;23.288;2024-02-16T02:05:03;2.00;99.90
21092;DHT22;10704;42.678;23.288;2024-02-16T02:07:30;2.00;99.90
21092;DHT22;10704;42.678;23.288;2024-02-16T02:09:56;2.00;99.90
21092;DHT22;10704;42.678;23.288;2024-02-16T02:12:22;1.80;99.90
21092;DHT22;10704;42.678;23.288;2024-02-16T02:14:49;1.90;99.90
21092;DHT22;10704;42.678;23.288;2024-02-16T02:17:16;1.90;99.90
21092;DHT22;10704;42.678;23.288;2024-02-16T02:19:42;1.80;99.90
21092;DHT22;10704;42.678;23.288;2024-02-16T02:22:19;1.90;99.90
21092;DHT22;10704;42.678;23.288;2024-02-16T02:24:46;2.00;99.90
21092;DHT22;10704;42.678;23.288;2024-02-16T02:27:13;2.10;99.90
21092;DHT22;10704;42.678;23.288;2024-02-16T02:29:40;2.20;99.90
21092;DHT22;10704;42.678;23.288;2024-02-16T02:32:07;2.10;99.90
21092;DHT22;10704;42.678;23.288;2024-02-16T02:34:33;2.00;99.90
21092;DHT22;10704;42.678;23.288;2024-02-16T02:36:59;1.80;99.90
21092;DHT22;10704;42.678;23.288;2024-02-16T02:39:25;1.80;99.90
21092;DHT22;10704;42.678;23.288;2024-02-16T02:41:51;1.60;99.90
21092;DHT22;10704;42.678;23.288;2024-02-16T02:44:18;1.60;99.90
21092;DHT22;10704;42.678;23.288;2024-02-16T02:46:45;1.50;99.90
21092;DHT22;10704;42.678;23.288;2024-02-16T02:49:11;1.60;99.90
21092;DHT22;10704;42.678;23.288;2024-02-16T02:51:37;1.60;99.90
21092;DHT22;10704;42.678;23.288;2024-02-16T02:54:03;1.60;99.90
21092;DHT22;10704;42.678;23.288;2024-02-16T02:56:29;1.60;99.90
21092;DHT22;10704;42.678;23.288;2024-02-16T02:58:54;1.60;99.90
21092;DHT22;10704;42.678;23.288;2024-02-16T03:01:20;1.60;99.90
21092;DHT22;10704;42.678;23.288;2024-02-16T03:03:48;1.60;99.90
21092;DHT22;10704;42.678;23.288;2024-02-16T03:06:20;1.50;99.90
21092;DHT22;10704;42.678;23.288;2024-02-16T03:08:46;1.60;99.90
21092;DHT22;10704;42.678;23.288;2024-02-16T03:11:13;1.60;99.90
21092;DHT22;10704;42.678;23.288;2024-02-16T03:13:39;1.50;99.90
21092;DHT22;10704;42.678;23.288;2024-02-16T03:16:05;1.60;99.90
21092;DHT22;10704;42.678;23.288;2024-02-16T03:18:32;1.70;99.90
21092;DHT22;10704;42.678;23.288;2024-02-16T03:20:58;1.70;99.90
21092;DHT22;10704;42.678;23.288;2024-02-16T03:23:24;1.80;99.90
21092;DHT22;10704;42.678;23.288;2024-02-16T03:25:50;1.70;99.90
21092;DHT22;10704;42.678;23.288;2024-02-16T03:28:16;1.60;99.90
21092;DHT22;10704;42.678;23.288;2024-02-16T03:30:43;1.60;99.90
21092;DHT22;10704;42.678;23.288;2024-02-16T03:33:09;1.50;99.90
21092;DHT22;10704;42.678;23.288;2024-02-16T03:35:36;1.40;99.90
21092;DHT22;10704;42.678;23.288;2024-02-16T03:38:03;1.40;99.90
21092;DHT22;10704;42.678;23.288;2024-02-16T03:40:29;1.40;99.90
21092;DHT22;10704;42.678;23.288;2024-02-16T03:42:55;1.30;99.90
21092;DHT22;10704;42.678;23.288;2024-02-16T03:45:21;1.40;99.90
21092;DHT22;10704;42.678;23.288;2024-02-16T03:47:47;1.40;99.90
21092;DHT22;10704;42.678;23.288;2024-02-16T03:50:20;1.50;99.90
21092;DHT22;10704;42.678;23.288;2024-02-16T03:52:46;1.50;99.90
21092;DHT22;10704;42.678;23.288;2024-02-16T03:55:12;1.40;99.90
21092;DHT22;10704;42.678;23.288;2024-02-16T03:57:40;1.40;99.90
21092;DHT22;10704;42.678;23.288;2024-02-16T04:00:06;1.40;99.90
21092;DHT22;10704;42.678;23.288;2024-02-16T04:02:39;1.40;99.90
21092;DHT22;10704;42.678;23.288;2024-02-16T04:05:05;1.40;99.90
21092;DHT22;10704;42.678;23.288;2024-02-16T04:07:34;1.40;99.90
21092;DHT22;10704;42.678;23.288;2024-02-16T04:10:00;1.40;99.90
21092;DHT22;10704;42.678;23.288;2024-02-16T04:12:26;1.40;99.90
21092;DHT22;10704;42.678;23.288;2024-02-16T04:14:52;1.40;99.90
21092;DHT22;10704;42.678;23.288;2024-02-16T04:17:18;1.40;99.90
21092;DHT22;10704;42.678;23.288;2024-02-16T04:19:44;1.40;99.90
21092;DHT22;10704;42.678;23.288;2024-02-16T04:22:10;1.40;99.90
21092;DHT22;10704;42.678;23.288;2024-02-16T04:24:36;1.60;99.90
21092;DHT22;10704;42.678;23.288;2024-02-16T04:27:02;1.70;99.90
21092;DHT22;10704;42.678;23.288;2024-02-16T04:29:27;1.90;99.90
21092;DHT22;10704;42.678;23.288;2024-02-16T04:31:53;1.80;99.90
21092;DHT22;10704;42.678;23.288;2024-02-16T04:34:19;1.60;99.90
21092;DHT22;10704;42.678;23.288;2024-02-16T04:36:45;1.50;99.90
21092;DHT22;10704;42.678;23.288;2024-02-16T04:39:11;1.40;99.90
21092;DHT22;10704;42.678;23.288;2024-02-16T04:41:37;1.30;99.90
21092;DHT22;10704;42.678;23.288;2024-02-16T04:44:04;1.20;99.90
21092;DHT22;10704;42.678;23.288;2024-02-16T04:46:30;1.10;99.90
21092;DHT22;10704;42.678;23.288;2024-02-16T04:48:56;1.00;99.90
21092;DHT22;10704;42.678;23.288;2024-02-16T04:51:22;1.00;99.90
21092;DHT22;10704;42.678;23.288;2024-02-16T04:53:50;1.00;99.90
21092;DHT22;10704;42.678;23.288;2024-02-16T04:56:16;1.00;99.90
21092;DHT22;10704;42.678;23.288;2024-02-16T04:58:42;0.90;99.90
21092;DHT22;10704;42.678;23.288;2024-02-16T05:01:08;1.10;99.90
21092;DHT22;10704;42.678;23.288;2024-02-16T05:03:34;1.30;99.90
21092;DHT22;10704;42.678;23.288;2024-02-16T05:06:00;1.40;99.90
21092;DHT22;10704;42.678;23.288;2024-02-16T05:08:26;1.30;99.90
21092;DHT22;10704;42.678;23.288;2024-02-16T05:10:52;1.20;99.90
21092;DHT22;10704;42.678;23.288;2024-02-16T05:13:18;1.20;99.90
21092;DHT22;10704;42.678;23.288;2024-02-16T05:15:44;1.10;99.90
21092;DHT22;10704;42.678;23.288;2024-02-16T05:18:10;1.10;99.90
21092;DHT22;10704;42.678;23.288;2024-02-16T05:20:38;1.20;99.90
21092;DHT22;10704;42.678;23.288;2024-02-16T05:23:04;1.10;99.90
21092;DHT22;10704;42.678;23.288;2024-02-16T05:25:33;1.10;99.90
21092;DHT22;10704;42.678;23.288;2024-02-16T05:27:59;1.00;99.90
21092;DHT22;10704;42.678;23.288;2024-02-16T05:30:26;1.10;99.90
21092;DHT22;10704;42.678;23.288;2024-02-16T05:32:51;1.20;99.90
21092;DHT22;10704;42.678;23.288;2024-02-16T05:42:55;1.50;99.90
21092;DHT22;10704;42.678;23.288;2024-02-16T05:45:24;1.60;99.90
21092;DHT22;10704;42.678;23.288;2024-02-16T05:47:52;1.60;99.90
21092;DHT22;10704;42.678;23.288;2024-02-16T05:50:20;1.60;99.90
21092;DHT22;10704;42.678;23.288;2024-02-16T05:52:46;1.50;99.90
21092;DHT22;10704;42.678;23.288;2024-02-16T05:55:13;1.60;99.90
21092;DHT22;10704;42.678;23.288;2024-02-16T05:57:39;1.60;99.90
21092;DHT22;10704;42.678;23.288;2024-02-16T06:00:06;1.60;99.90
21092;DHT22;10704;42.678;23.288;2024-02-16T06:02:33;1.70;99.90
21092;DHT22;10704;42.678;23.288;2024-02-16T06:05:00;1.60;99.90
21092;DHT22;10704;42.678;23.288;2024-02-16T06:07:26;1.60;99.90
21092;DHT22;10704;42.678;23.288;2024-02-16T06:09:54;1.50;99.90
21092;DHT22;10704;42.678;23.288;2024-02-16T06:12:21;1.50;99.90
21092;DHT22;10704;42.678;23.288;2024-02-16T06:14:47;1.60;99.90
21092;DHT22;10704;42.678;23.288;2024-02-16T06:17:14;1.70;99.90
21092;DHT22;10704;42.678;23.288;2024-02-16T06:19:41;1.90;99.90
21092;DHT22;10704;42.678;23.288;2024-02-16T06:22:07;1.90;99.90
21092;DHT22;10704;42.678;23.288;2024-02-16T06:24:36;1.80;99.90
21092;DHT22;10704;42.678;23.288;2024-02-16T06:27:03;1.80;99.90
21092;DHT22;10704;42.678;23.288;2024-02-16T06:29:29;2.00;99.90
21092;DHT22;10704;42.678;23.288;2024-02-16T06:31:56;2.00;99.90
21092;DHT22;10704;42.678;23.288;2024-02-16T06:34:22;2.10;99.90
21092;DHT22;10704;42.678;23.288;2024-02-16T06:36:48;2.30;99.90
21092;DHT22;10704;42.678;23.288;2024-02-16T06:39:15;2.40;99.90
21092;DHT22;10704;42.678;23.288;2024-02-16T06:41:48;2.40;99.90
21092;DHT22;10704;42.678;23.288;2024-02-16T06:44:17;2.60;99.90
21092;DHT22;10704;42.678;23.288;2024-02-16T06:46:43;2.80;99.90
21092;DHT22;10704;42.678;23.288;2024-02-16T06:49:10;2.90;99.90
21092;DHT22;10704;42.678;23.288;2024-02-16T06:51:36;3.10;99.90
21092;DHT22;10704;42.678;23.288;2024-02-16T06:54:03;3.10;99.90
21092;DHT22;10704;42.678;23.288;2024-02-16T06:56:30;3.20;99.90
21092;DHT22;10704;42.678;23.288;2024-02-16T06:58:56;3.10;99.90
21092;DHT22;10704;42.678;23.288;2024-02-16T07:01:22;3.30;99.90
21092;DHT22;10704;42.678;23.288;2024-02-16T07:03:48;3.50;99.90
21092;DHT22;10704;42.678;23.288;2024-02-16T07:06:14;3.60;99.90
21092;DHT22;10704;42.678;23.288;2024-02-16T07:08:40;3.70;99.90
21092;DHT22;10704;42.678;23.288;2024-02-16T07:11:06;4.00;99.90
21092;DHT22;10704;42.678;23.288;2024-02-16T07:13:37;4.20;99.90
21092;DHT22;10704;42.678;23.288;2024-02-16T07:16:04;4.10;99.90
21092;DHT22;10704;42.678;23.288;2024-02-16T07:18:33;4.40;99.90
21092;DHT22;10704;42.678;23.288;2024-02-16T07:20:59;4.50;99.90
21092;DHT22;10704;42.678;23.288;2024-02-16T07:23:25;4.70;99.90
21092;DHT22;10704;42.678;23.288;2024-02-16T07:25:51;5.00;99.90
21092;DHT22;10704;42.678;23.288;2024-02-16T07:28:21;5.30;99.90
21092;DHT22;10704;42.678;23.288;2024-02-16T07:30:47;5.50;99.90
21092;DHT22;10704;42.678;23.288;2024-02-16T07:33:13;5.10;99.90
21092;DHT22;10704;42.678;23.288;2024-02-16T07:35:39;5.50;99.90
21092;DHT22;10704;42.678;23.288;2024-02-16T07:38:05;5.70;99.90
21092;DHT22;10704;42.678;23.288;2024-02-16T07:40:31;5.80;99.90
21092;DHT22;10704;42.678;23.288;2024-02-16T07:42:57;5.80;99.90
21092;DHT22;10704;42.678;23.288;2024-02-16T07:45:26;6.20;99.90
21092;DHT22;10704;42.678;23.288;2024-02-16T07:47:52;6.60;99.90
21092;DHT22;10704;42.678;23.288;2024-02-16T07:50:19;7.10;99.90
21092;DHT22;10704;42.678;23.288;2024-02-16T07:52:46;7.60;99.90
21092;DHT22;10704;42.678;23.288;2024-02-16T07:55:12;7.80;99.90
21092;DHT22;10704;42.678;23.288;2024-02-16T07:57:38;8.30;99.90
21092;DHT22;10704;42.678;23.288;2024-02-16T08:00:05;8.90;99.90
21092;DHT22;10704;42.678;23.288;2024-02-16T08:02:32;8.70;99.90
21092;DHT22;10704;42.678;23.288;2024-02-16T08:04:59;8.80;99.90
21092;DHT22;10704;42.678;23.288;2024-02-16T08:07:25;9.20;99.90
21092;DHT22;10704;42.678;23.288;2024-02-16T08:09:51;8.80;98.10
21092;DHT22;10704;42.678;23.288;2024-02-16T08:12:16;9.10;99.20
21092;DHT22;10704;42.678;23.288;2024-02-16T08:14:43;9.50;98.30
21092;DHT22;10704;42.678;23.288;2024-02-16T08:17:10;10.10;96.60
21092;DHT22;10704;42.678;23.288;2024-02-16T08:19:38;11.10;94.10
21092;DHT22;10704;42.678;23.288;2024-02-16T08:22:05;11.70;91.40
21092;DHT22;10704;42.678;23.288;2024-02-16T08:24:33;12.00;90.30
21092;DHT22;10704;42.678;23.288;2024-02-16T08:26:59;12.30;87.80
21092;DHT22;10704;42.678;23.288;2024-02-16T08:29:25;12.60;86.60
21092;DHT22;10704;42.678;23.288;2024-02-16T08:31:52;12.70;84.00
21092;DHT22;10704;42.678;23.288;2024-02-16T08:34:18;12.40;82.60
21092;DHT22;10704;42.678;23.288;2024-02-16T08:36:48;12.80;81.40
21092;DHT22;10704;42.678;23.288;2024-02-16T08:39:16;12.60;81.00
21092;DHT22;10704;42.678;23.288;2024-02-16T08:41:42;13.20;79.00
21092;DHT22;10704;42.678;23.288;2024-02-16T08:44:14;13.70;79.20
21092;DHT22;10704;42.678;23.288;2024-02-16T08:50:27;14.70;71.70
21092;DHT22;10704;42.678;23.288;2024-02-16T08:52:53;14.90;69.70
21092;DHT22;10704;42.678;23.288;2024-02-16T08:55:20;14.70;70.20
21092;DHT22;10704;42.678;23.288;2024-02-16T08:57:46;15.00;69.10
21092;DHT22;10704;42.678;23.288;2024-02-16T09:00:12;15.00;68.80
21092;DHT22;10704;42.678;23.288;2024-02-16T09:02:38;14.60;68.50
21092;DHT22;10704;42.678;23.288;2024-02-16T09:05:05;15.20;68.50
21092;DHT22;10704;42.678;23.288;2024-02-16T09:07:31;15.90;66.50
21092;DHT22;10704;42.678;23.288;2024-02-16T09:09:57;15.90;64.80
21092;DHT22;10704;42.678;23.288;2024-02-16T09:12:23;16.50;63.20
21092;DHT22;10704;42.678;23.288;2024-02-16T09:14:49;17.10;62.00
21092;DHT22;10704;42.678;23.288;2024-02-16T09:17:15;17.10;60.60
21092;DHT22;10704;42.678;23.288;2024-02-16T09:19:41;17.50;60.20
21092;DHT22;10704;42.678;23.288;2024-02-16T09:22:07;17.70;59.40
21092;DHT22;10704;42.678;23.288;2024-02-16T09:24:33;17.70;58.70
21092;DHT22;10704;42.678;23.288;2024-02-16T09:26:59;18.30;57.30
21092;DHT22;10704;42.678;23.288;2024-02-16T09:29:30;17.80;56.60
21092;DHT22;10704;42.678;23.288;2024-02-16T09:31:56;18.40;55.50
21092;DHT22;10704;42.678;23.288;2024-02-16T09:34:22;18.90;54.70
21092;DHT22;10704;42.678;23.288;2024-02-16T09:36:48;19.80;53.50
21092;DHT22;10704;42.678;23.288;2024-02-16T09:39:14;20.10;51.80
21092;DHT22;10704;42.678;23.288;2024-02-16T09:41:44;20.20;51.00
21092;DHT22;10704;42.678;23.288;2024-02-16T09:44:14;20.00;51.40
21092;DHT22;10704;42.678;23.288;2024-02-16T09:46:40;19.70;51.30
21092;DHT22;10704;42.678;23.288;2024-02-16T09:49:06;20.10;51.00
21092;DHT22;10704;42.678;23.288;2024-02-16T09:51:36;20.80;49.70
21092;DHT22;10704;42.678;23.288;2024-02-16T09:54:03;20.60;50.20
21092;DHT22;10704;42.678;23.288;2024-02-16T09:56:29;20.70;49.90
21092;DHT22;10704;42.678;23.288;2024-02-16T09:58:55;20.90;48.80
21092;DHT22;10704;42.678;23.288;2024-02-16T10:01:23;20.80;48.80
21092;DHT22;10704;42.678;23.288;2024-02-16T10:03:49;21.00;47.60
21092;DHT22;10704;42.678;23.288;2024-02-16T10:06:16;21.50;47.90
21092;DHT22;10704;42.678;23.288;2024-02-16T10:08:53;21.60;47.80
21092;DHT22;10704;42.678;23.288;2024-02-16T10:11:21;21.20;47.40
21092;DHT22;10704;42.678;23.288;2024-02-16T10:14:03;21.30;47.40
21092;DHT22;10704;42.678;23.288;2024-02-16T10:16:30;21.60;46.90
21092;DHT22;10704;42.678;23.288;2024-02-16T10:19:07;21.40;46.50
21092;DHT22;10704;42.678;23.288;2024-02-16T10:21:33;20.80;47.30
21092;DHT22;10704;42.678;23.288;2024-02-16T10:24:06;20.50;47.30
21092;DHT22;10704;42.678;23.288;2024-02-16T10:26:37;21.00;47.00
21092;DHT22;10704;42.678;23.288;2024-02-16T10:29:04;21.40;46.90
21092;DHT22;10704;42.678;23.288;2024-02-16T10:31:31;21.60;45.60
21092;DHT22;10704;42.678;23.288;2024-02-16T10:36:27;22.40;44.80
21092;DHT22;10704;42.678;23.288;2024-02-16T10:38:54;22.40;44.70
21092;DHT22;10704;42.678;23.288;2024-02-16T10:41:27;22.60;44.20
21092;DHT22;10704;42.678;23.288;2024-02-16T10:43:56;22.60;44.90
21092;DHT22;10704;42.678;23.288;2024-02-16T10:46:23;22.70;44.10
21092;DHT22;10704;42.678;23.288;2024-02-16T10:48:52;22.50;43.30
21092;DHT22;10704;42.678;23.288;2024-02-16T10:54:00;23.10;43.40
21092;DHT22;10704;42.678;23.288;2024-02-16T10:56:37;23.00;43.60
21092;DHT22;10704;42.678;23.288;2024-02-16T11:02:18;22.70;43.40
21092;DHT22;10704;42.678;23.288;2024-02-16T11:04:46;22.80;43.30
21092;DHT22;10704;42.678;23.288;2024-02-16T11:07:16;22.30;43.90
21092;DHT22;10704;42.678;23.288;2024-02-16T11:09:44;22.20;43.60
21092;DHT22;10704;42.678;23.288;2024-02-16T11:12:12;22.90;43.80
21092;DHT22;10704;42.678;23.288;2024-02-16T11:17:11;23.10;43.50
21092;DHT22;10704;42.678;23.288;2024-02-16T11:19:42;23.00;43.20
21092;DHT22;10704;42.678;23.288;2024-02-16T11:22:08;22.70;43.00
21092;DHT22;10704;42.678;23.288;2024-02-16T11:24:43;21.80;43.00
21092;DHT22;10704;42.678;23.288;2024-02-16T11:27:10;22.10;43.70
21092;DHT22;10704;42.678;23.288;2024-02-16T11:29:38;22.70;43.10
21092;DHT22;10704;42.678;23.288;2024-02-16T11:32:05;21.90;43.10
21092;DHT22;10704;42.678;23.288;2024-02-16T11:34:32;21.40;44.30
21092;DHT22;10704;42.678;23.288;2024-02-16T11:37:02;21.40;44.30
21092;DHT22;10704;42.678;23.288;2024-02-16T11:39:29;21.10;45.40
21092;DHT22;10704;42.678;23.288;2024-02-16T11:42:05;21.60;44.60
21092;DHT22;10704;42.678;23.288;2024-02-16T11:44:32;21.80;43.70
21092;DHT22;10704;42.678;23.288;2024-02-16T11:46:59;21.60;44.30
21092;DHT22;10704;42.678;23.288;2024-02-16T11:49:27;21.60;44.40
21092;DHT22;10704;42.678;23.288;2024-02-16T11:51:54;21.90;43.90
21092;DHT22;10704;42.678;23.288;2024-02-16T11:54:20;21.40;44.50
21092;DHT22;10704;42.678;23.288;2024-02-16T11:56:46;21.90;44.40
21092;DHT22;10704;42.678;23.288;2024-02-16T11:59:15;21.80;44.00
21092;DHT22;10704;42.678;23.288;2024-02-16T12:02:17;21.60;44.80
21092;DHT22;10704;42.678;23.288;2024-02-16T12:04:46;21.80;44.60
21092;DHT22;10704;42.678;23.288;2024-02-16T12:07:13;21.10;45.20
21092;DHT22;10704;42.678;23.288;2024-02-16T12:09:40;20.90;45.50
21092;DHT22;10704;42.678;23.288;2024-02-16T12:12:06;21.40;45.30
21092;DHT22;10704;42.678;23.288;2024-02-16T12:14:32;21.40;44.90
21092;DHT22;10704;42.678;23.288;2024-02-16T12:16:58;21.00;45.60
21092;DHT22;10704;42.678;23.288;2024-02-16T12:19:25;20.70;45.80
21092;DHT22;10704;42.678;23.288;2024-02-16T12:21:51;21.00;45.40
21092;DHT22;10704;42.678;23.288;2024-02-16T12:24:18;21.00;45.30
21092;DHT22;10704;42.678;23.288;2024-02-16T12:26:44;20.70;44.80
21092;DHT22;10704;42.678;23.288;2024-02-16T12:29:11;20.60;45.60
21092;DHT22;10704;42.678;23.288;2024-02-16T12:31:42;20.60;45.10
21092;DHT22;10704;42.678;23.288;2024-02-16T12:34:10;20.40;45.40
21092;DHT22;10704;42.678;23.288;2024-02-16T12:36:38;19.80;45.90
21092;DHT22;10704;42.678;23.288;2024-02-16T12:39:05;19.50;46.70
21092;DHT22;10704;42.678;23.288;2024-02-16T12:41:32;19.40;47.00
21092;DHT22;10704;42.678;23.288;2024-02-16T12:43:59;19.60;47.20
21092;DHT22;10704;42.678;23.288;2024-02-16T12:46:25;19.90;46.70
21092;DHT22;10704;42.678;23.288;2024-02-16T12:48:51;19.90;46.50
21092;DHT22;10704;42.678;23.288;2024-02-16T12:51:19;19.60;46.80
21092;DHT22;10704;42.678;23.288;2024-02-16T12:53:45;19.90;46.80
21092;DHT22;10704;42.678;23.288;2024-02-16T12:56:11;19.60;46.80
21092;DHT22;10704;42.678;23.288;2024-02-16T12:58:37;19.50;46.90
21092;DHT22;10704;42.678;23.288;2024-02-16T13:01:03;19.50;47.60
21092;DHT22;10704;42.678;23.288;2024-02-16T13:03:37;19.70;47.40
21092;DHT22;10704;42.678;23.288;2024-02-16T13:06:03;19.70;47.60
21092;DHT22;10704;42.678;23.288;2024-02-16T13:08:30;19.40;47.80
21092;DHT22;10704;42.678;23.288;2024-02-16T13:10:56;19.60;47.70
21092;DHT22;10704;42.678;23.288;2024-02-16T13:13:23;19.60;47.40
21092;DHT22;10704;42.678;23.288;2024-02-16T13:15:49;19.30;47.80
21092;DHT22;10704;42.678;23.288;2024-02-16T13:18:15;19.40;48.10
21092;DHT22;10704;42.678;23.288;2024-02-16T13:20:43;19.60;48.10
21092;DHT22;10704;42.678;23.288;2024-02-16T13:23:09;19.40;47.80
21092;DHT22;10704;42.678;23.288;2024-02-16T13:25:37;19.50;47.50
21092;DHT22;10704;42.678;23.288;2024-02-16T13:28:03;19.50;47.90
21092;DHT22;10704;42.678;23.288;2024-02-16T13:30:30;19.30;48.30
21092;DHT22;10704;42.678;23.288;2024-02-16T13:32:56;19.50;48.20
21092;DHT22;10704;42.678;23.288;2024-02-16T13:35:23;18.70;48.90
21092;DHT22;10704;42.678;23.288;2024-02-16T13:37:49;17.90;50.10
21092;DHT22;10704;42.678;23.288;2024-02-16T13:40:15;18.10;50.40
21092;DHT22;10704;42.678;23.288;2024-02-16T13:42:43;18.80;49.90
21092;DHT22;10704;42.678;23.288;2024-02-16T13:45:10;18.80;49.20
21092;DHT22;10704;42.678;23.288;2024-02-16T13:47:37;18.80;49.10
21092;DHT22;10704;42.678;23.288;2024-02-16T13:50:08;18.80;49.20
21092;DHT22;10704;42.678;23.288;2024-02-16T13:52:34;18.30;49.80
21092;DHT22;10704;42.678;23.288;2024-02-16T13:55:01;17.90;50.80
21092;DHT22;10704;42.678;23.288;2024-02-16T13:57:27;17.90;50.90
21092;DHT22;10704;42.678;23.288;2024-02-16T13:59:53;18.10;50.60
21092;DHT22;10704;42.678;23.288;2024-02-16T14:02:19;18.50;50.60
21092;DHT22;10704;42.678;23.288;2024-02-16T14:04:45;18.80;50.20
21092;DHT22;10704;42.678;23.288;2024-02-16T14:07:11;18.90;50.00
21092;DHT22;10704;42.678;23.288;2024-02-16T14:09:38;18.50;49.90
21092;DHT22;10704;42.678;23.288;2024-02-16T14:12:04;18.30;50.70
21092;DHT22;10704;42.678;23.288;2024-02-16T14:14:30;17.70;51.90
21092;DHT22;10704;42.678;23.288;2024-02-16T14:16:56;17.90;52.30
21092;DHT22;10704;42.678;23.288;2024-02-16T14:19:22;18.00;52.10
21092;DHT22;10704;42.678;23.288;2024-02-16T14:21:48;18.00;51.90
21092;DHT22;10704;42.678;23.288;2024-02-16T14:24:14;17.50;51.90
21092;DHT22;10704;42.678;23.288;2024-02-16T14:26:41;17.40;52.70
21092;DHT22;10704;42.678;23.288;2024-02-16T14:29:08;17.30;52.30
21092;DHT22;10704;42.678;23.288;2024-02-16T14:31:34;17.40;53.30
21092;DHT22;10704;42.678;23.288;2024-02-16T14:34:00;17.40;53.30
21092;DHT22;10704;42.678;23.288;2024-02-16T14:36:26;17.70;53.40
21092;DHT22;10704;42.678;23.288;2024-02-16T14:38:52;17.60;53.40
21092;DHT22;10704;42.678;23.288;2024-02-16T14:41:18;17.50;53.90
21092;DHT22;10704;42.678;23.288;2024-02-16T14:43:44;18.00;53.40
21092;DHT22;10704;42.678;23.288;2024-02-16T14:46:11;18.20;52.70
21092;DHT22;10704;42.678;23.288;2024-02-16T14:48:37;18.20;52.80
21092;DHT22;10704;42.678;23.288;2024-02-16T14:51:03;17.90;53.50
21092;DHT22;10704;42.678;23.288;2024-02-16T14:53:30;17.10;55.10
21092;DHT22;10704;42.678;23.288;2024-02-16T14:56:01;17.20;55.90
21092;DHT22;10704;42.678;23.288;2024-02-16T14:58:31;17.60;55.50
21092;DHT22;10704;42.678;23.288;2024-02-16T15:00:58;17.80;55.30
21092;DHT22;10704;42.678;23.288;2024-02-16T15:03:24;17.50;55.00
21092;DHT22;10704;42.678;23.288;2024-02-16T15:05:51;17.10;55.80
21092;DHT22;10704;42.678;23.288;2024-02-16T15:08:17;16.90;56.30
21092;DHT22;10704;42.678;23.288;2024-02-16T15:10:43;16.80;56.20
21092;DHT22;10704;42.678;23.288;2024-02-16T15:13:09;16.20;56.80
21092;DHT22;10704;42.678;23.288;2024-02-16T15:15:35;15.80;57.90
21092;DHT22;10704;42.678;23.288;2024-02-16T15:18:01;15.20;58.90
21092;DHT22;10704;42.678;23.288;2024-02-16T15:20:29;14.70;59.80
21092;DHT22;10704;42.678;23.288;2024-02-16T15:22:56;14.20;61.20
21092;DHT22;10704;42.678;23.288;2024-02-16T15:25:23;13.70;62.90
21092;DHT22;10704;42.678;23.288;2024-02-16T15:27:49;13.30;64.70
21092;DHT22;10704;42.678;23.288;2024-02-16T15:30:17;13.00;65.80
21092;DHT22;10704;42.678;23.288;2024-02-16T15:32:43;12.60;67.50
21092;DHT22;10704;42.678;23.288;2024-02-16T15:35:09;12.60;67.90
21092;DHT22;10704;42.678;23.288;2024-02-16T15:37:35;12.50;68.50
21092;DHT22;10704;42.678;23.288;2024-02-16T15:40:01;12.30;69.00
21092;DHT22;10704;42.678;23.288;2024-02-16T15:42:28;12.20;70.00
21092;DHT22;10704;42.678;23.288;2024-02-16T15:44:57;12.20;70.20